createdAt,value
2022-12-04T00:03:34.750Z,1.45
2022-12-04T00:07:17.619Z,1.47
2022-12-04T00:11:00.569Z,1.47
2022-12-04T00:15:23.539Z,1.48
2022-12-04T00:18:52.905Z,1.46
2022-12-04T00:22:35.643Z,1.46
2022-12-04T00:26:19.851Z,1.47
2022-12-04T00:30:07.512Z,1.46
2022-12-04T00:33:50.443Z,1.45
2022-12-04T00:37:34.459Z,1.44
2022-12-04T00:41:23.048Z,1.43
2022-12-04T00:45:08.275Z,1.46
2022-12-04T00:48:51.658Z,1.51
2022-12-04T00:52:36.455Z,1.49
2022-12-04T00:56:20.875Z,1.45
2022-12-04T01:00:05.031Z,1.44
2022-12-04T01:03:51.945Z,1.46
2022-12-04T01:07:34.786Z,1.44
2022-12-04T01:11:20.058Z,1.40
2022-12-04T01:15:02.814Z,1.45
2022-12-04T01:18:47.972Z,1.42
2022-12-04T01:22:32.297Z,1.39
2022-12-04T01:26:17.258Z,1.43
2022-12-04T01:30:00.147Z,1.42
2022-12-04T01:33:43.451Z,1.43
2022-12-04T01:37:26.218Z,1.45
2022-12-04T01:41:12.049Z,1.45
2022-12-04T01:45:30.066Z,1.44
2022-12-04T01:49:16.450Z,1.45
2022-12-04T01:53:00.185Z,1.47
2022-12-04T01:56:46.726Z,1.43
2022-12-04T02:00:29.661Z,1.44
2022-12-04T02:04:12.341Z,1.46
2022-12-04T02:07:59.078Z,1.43
2022-12-04T02:11:47.973Z,1.42
2022-12-04T02:15:37.071Z,1.44
2022-12-04T02:19:34.375Z,1.40
2022-12-04T02:23:36.785Z,1.41
2022-12-04T02:27:32.282Z,1.41
2022-12-04T02:31:20.001Z,1.36
2022-12-04T02:35:08.073Z,1.39
2022-12-04T02:38:55.051Z,1.39
2022-12-04T02:42:41.514Z,1.40
2022-12-04T02:46:30.006Z,1.35
2022-12-04T02:50:15.489Z,1.34
2022-12-04T02:54:01.078Z,1.35
2022-12-04T02:57:46.555Z,1.37
2022-12-04T03:01:33.249Z,1.37
2022-12-04T03:05:21.916Z,1.36
2022-12-04T03:09:08.349Z,1.39
2022-12-04T03:12:53.542Z,1.38
2022-12-04T03:16:45.243Z,1.41
2022-12-04T03:20:29.828Z,1.44
2022-12-04T03:24:15.534Z,1.46
2022-12-04T03:28:01.765Z,1.46
2022-12-04T03:31:49.169Z,1.44
2022-12-04T03:35:35.466Z,1.46
2022-12-04T03:39:20.521Z,1.45
2022-12-04T03:43:05.785Z,1.47
2022-12-04T03:46:53.289Z,1.43
2022-12-04T03:50:38.799Z,1.41
2022-12-04T03:54:27.659Z,1.41
2022-12-04T03:58:14.217Z,1.42
2022-12-04T04:02:00.666Z,1.41
2022-12-04T04:05:45.947Z,1.40
2022-12-04T04:09:32.764Z,1.39
2022-12-04T04:13:36.177Z,1.41
2022-12-04T04:17:43.016Z,1.38
2022-12-04T04:21:47.395Z,1.40
2022-12-04T04:25:30.559Z,1.39
2022-12-04T04:29:14.162Z,1.40
2022-12-04T04:33:01.754Z,1.37
2022-12-04T04:36:52.798Z,1.40
2022-12-04T04:40:39.787Z,1.41
2022-12-04T04:44:27.451Z,1.40
2022-12-04T04:48:18.267Z,1.41
2022-12-04T04:52:02.894Z,1.37
2022-12-04T04:55:46.165Z,1.39
2022-12-04T04:59:28.835Z,1.36
2022-12-04T05:03:13.080Z,1.33
2022-12-04T05:06:58.320Z,1.33
2022-12-04T05:10:41.071Z,1.37
2022-12-04T05:14:25.840Z,1.38
2022-12-04T05:18:12.465Z,1.44
2022-12-04T05:21:57.106Z,1.48
2022-12-04T05:25:41.084Z,1.44
2022-12-04T05:29:24.367Z,1.46
2022-12-04T05:33:07.050Z,1.50
2022-12-04T05:36:51.122Z,1.53
2022-12-04T05:40:33.842Z,1.50
2022-12-04T05:44:17.795Z,1.49
2022-12-04T05:48:01.059Z,1.44
2022-12-04T05:51:44.268Z,1.43
2022-12-04T05:55:31.409Z,1.42
2022-12-04T05:59:14.254Z,1.44
2022-12-04T06:02:56.998Z,1.44
2022-12-04T06:06:40.340Z,1.42
2022-12-04T06:10:23.146Z,1.45
2022-12-04T06:14:09.667Z,1.48
2022-12-04T06:17:54.206Z,1.51
2022-12-04T06:21:41.134Z,1.56
2022-12-04T06:25:23.828Z,1.53
2022-12-04T06:29:07.873Z,1.53
2022-12-04T06:32:50.573Z,1.55
2022-12-04T06:36:34.543Z,1.52
2022-12-04T06:40:17.278Z,1.53
2022-12-04T06:44:00.397Z,1.56
2022-12-04T06:47:44.527Z,1.56
2022-12-04T06:51:29.152Z,1.56
2022-12-04T06:55:16.423Z,1.59
2022-12-04T06:59:05.445Z,1.65
2022-12-04T07:02:49.638Z,1.67
2022-12-04T07:06:33.737Z,1.61
2022-12-04T07:10:16.453Z,1.56
2022-12-04T07:13:59.287Z,1.57
2022-12-04T07:17:42.028Z,1.67
2022-12-04T07:21:27.568Z,1.70
2022-12-04T07:25:10.802Z,1.71
2022-12-04T07:28:53.638Z,1.73
2022-12-04T07:32:36.391Z,1.68
2022-12-04T07:36:20.708Z,1.63
2022-12-04T07:40:05.286Z,1.68
2022-12-04T07:43:48.286Z,1.63
2022-12-04T07:47:31.020Z,1.63
2022-12-04T07:51:14.999Z,1.64
2022-12-04T07:54:58.758Z,1.62
2022-12-04T07:58:42.858Z,1.65
2022-12-04T08:02:25.590Z,1.65
2022-12-04T08:06:08.925Z,1.70
2022-12-04T08:09:51.684Z,1.73
2022-12-04T08:13:34.397Z,1.75
2022-12-04T08:17:18.604Z,1.79
2022-12-04T08:21:06.419Z,1.85
2022-12-04T08:24:49.506Z,1.81
2022-12-04T08:28:32.488Z,1.79
2022-12-04T08:32:15.160Z,1.82
2022-12-04T08:35:59.850Z,1.87
2022-12-04T08:39:42.715Z,1.89
2022-12-04T08:43:25.480Z,1.86
2022-12-04T08:47:08.299Z,1.87
2022-12-04T08:50:53.958Z,1.90
2022-12-04T08:54:38.030Z,1.97
2022-12-04T08:58:21.048Z,2.02
2022-12-04T09:02:03.902Z,2.07
2022-12-04T09:05:47.286Z,2.07
2022-12-04T09:09:30.271Z,2.11
2022-12-04T09:13:14.331Z,2.17
2022-12-04T09:16:57.053Z,2.20
2022-12-04T09:20:39.722Z,2.24
2022-12-04T09:24:22.620Z,2.31
2022-12-04T09:28:05.930Z,2.32
2022-12-04T09:31:50.035Z,2.36
2022-12-04T09:35:34.039Z,2.44
2022-12-04T09:39:16.762Z,2.49
2022-12-04T09:43:02.211Z,2.57
2022-12-04T09:46:51.440Z,2.61
2022-12-04T09:50:41.048Z,2.65
2022-12-04T09:54:28.730Z,2.63
2022-12-04T09:58:15.113Z,2.67
2022-12-04T10:02:07.246Z,2.72
2022-12-04T10:05:54.914Z,2.81
2022-12-04T10:09:43.165Z,2.81
2022-12-04T10:13:57.829Z,2.86
2022-12-04T10:17:54.046Z,2.93
2022-12-04T10:21:44.024Z,2.97
2022-12-04T10:25:32.825Z,3.02
2022-12-04T10:29:19.939Z,2.99
2022-12-04T10:33:08.290Z,2.78
2022-12-04T10:36:52.957Z,2.83
2022-12-04T10:40:39.368Z,2.88
2022-12-04T10:44:22.299Z,2.91
2022-12-04T10:48:08.041Z,2.94
2022-12-04T10:51:51.041Z,2.96
2022-12-04T10:55:36.432Z,2.98
2022-12-04T10:59:22.174Z,3.04
2022-12-04T11:03:24.874Z,3.08
2022-12-04T11:07:09.647Z,3.09
2022-12-04T11:11:01.110Z,3.11
2022-12-04T11:14:46.990Z,3.10
2022-12-04T11:18:33.131Z,3.10
2022-12-04T11:22:17.012Z,3.10
2022-12-04T11:26:05.608Z,3.06
2022-12-04T11:29:49.696Z,3.03
2022-12-04T11:33:39.708Z,3.08
2022-12-04T11:37:25.210Z,3.03
2022-12-04T11:41:07.882Z,3.07
2022-12-04T11:44:58.890Z,3.17
2022-12-04T11:48:46.780Z,3.21
2022-12-04T11:52:38.585Z,3.23
2022-12-04T11:56:25.650Z,3.22
2022-12-04T12:00:13.875Z,3.20
2022-12-04T12:04:15.178Z,3.27
2022-12-04T12:08:03.053Z,3.31
2022-12-04T12:11:50.922Z,3.30
2022-12-04T12:15:39.910Z,3.28
2022-12-04T12:19:57.096Z,3.31
2022-12-04T12:23:56.016Z,3.33
2022-12-04T12:27:51.541Z,3.33
2022-12-04T12:31:47.737Z,3.36
2022-12-04T12:35:32.524Z,3.43
2022-12-04T12:39:21.480Z,3.45
2022-12-04T12:43:08.202Z,3.53
2022-12-04T12:46:52.873Z,3.55
2022-12-04T12:50:42.642Z,3.57
2022-12-04T12:54:32.695Z,3.53
2022-12-04T12:58:18.848Z,3.46
2022-12-04T13:02:35.316Z,3.44
2022-12-04T13:06:31.129Z,3.59
2022-12-04T13:10:18.026Z,3.90
2022-12-04T13:14:04.337Z,3.99
2022-12-04T13:17:48.568Z,4.12
2022-12-04T13:21:36.659Z,4.26
2022-12-04T13:25:31.504Z,4.27
2022-12-04T13:29:20.108Z,4.20
2022-12-04T13:33:20.383Z,4.06
2022-12-04T13:37:26.758Z,3.92
2022-12-04T13:41:16.627Z,3.80
2022-12-04T13:45:01.902Z,3.68
2022-12-04T13:48:45.905Z,3.71
2022-12-04T13:52:40.822Z,3.65
2022-12-04T13:56:28.584Z,3.63
2022-12-04T14:00:27.451Z,3.61
2022-12-04T14:04:24.788Z,3.56
2022-12-04T14:08:09.565Z,3.56
2022-12-04T14:11:55.403Z,3.62
2022-12-04T14:15:38.804Z,3.58
2022-12-04T14:19:33.624Z,3.60
2022-12-04T14:23:27.165Z,3.59
2022-12-04T14:27:33.748Z,3.57
2022-12-04T14:31:23.612Z,3.58
2022-12-04T14:35:07.204Z,3.52
2022-12-04T14:38:52.257Z,3.44
2022-12-04T14:42:40.073Z,3.42
2022-12-04T14:46:29.481Z,3.39
2022-12-04T14:50:20.914Z,3.35
2022-12-04T14:54:09.503Z,3.38
2022-12-04T14:57:56.982Z,3.30
2022-12-04T15:01:43.086Z,3.31
2022-12-04T15:05:30.693Z,3.17
2022-12-04T15:09:36.685Z,3.13
2022-12-04T15:13:28.483Z,3.08
2022-12-04T15:17:11.936Z,3.09
2022-12-04T15:20:57.319Z,3.01
2022-12-04T15:24:40.216Z,2.89
2022-12-04T15:28:25.784Z,2.83
2022-12-04T15:32:12.744Z,2.86
2022-12-04T15:35:57.753Z,2.81
2022-12-04T15:39:40.588Z,2.76
2022-12-04T15:43:28.750Z,2.76
2022-12-04T15:47:22.232Z,2.54
2022-12-04T15:51:07.248Z,2.37
2022-12-04T15:54:56.490Z,2.28
2022-12-04T15:58:40.572Z,2.21
2022-12-04T16:02:27.257Z,2.16
2022-12-04T16:06:16.981Z,2.29
2022-12-04T16:10:04.132Z,2.29
2022-12-04T16:13:48.320Z,2.03
2022-12-04T16:17:33.623Z,1.94
2022-12-04T16:21:18.330Z,1.92
2022-12-04T16:25:01.099Z,1.96
2022-12-04T16:28:44.630Z,1.89
2022-12-04T16:32:30.076Z,1.92
2022-12-04T16:36:17.134Z,1.89
2022-12-04T16:40:00.234Z,1.92
2022-12-04T16:43:43.544Z,1.89
2022-12-04T16:47:26.320Z,1.95
2022-12-04T16:51:10.296Z,1.87
2022-12-04T16:54:54.670Z,1.90
2022-12-04T16:58:37.732Z,1.88
2022-12-04T17:02:24.606Z,1.93
2022-12-04T17:06:07.504Z,1.97
2022-12-04T17:09:50.231Z,1.97
2022-12-04T17:13:34.323Z,1.97
2022-12-04T17:17:17.143Z,1.96
2022-12-04T17:20:59.931Z,1.92
2022-12-04T17:24:49.098Z,1.85
2022-12-04T17:28:37.393Z,1.87
2022-12-04T17:32:20.137Z,1.90
2022-12-04T17:36:03.467Z,1.95
2022-12-04T17:39:46.353Z,2.03
2022-12-04T17:43:29.915Z,2.06
2022-12-04T17:47:14.090Z,2.15
2022-12-04T17:51:05.326Z,2.10
2022-12-04T17:54:49.369Z,2.20
2022-12-04T17:58:32.850Z,2.14
2022-12-04T18:02:17.254Z,2.17
2022-12-04T18:06:00.790Z,2.18
2022-12-04T18:09:43.510Z,2.15
2022-12-04T18:13:26.194Z,2.18
2022-12-04T18:17:08.939Z,2.15
2022-12-04T18:21:02.416Z,2.18
2022-12-04T18:24:45.189Z,2.18
2022-12-04T18:28:28.201Z,2.19
2022-12-04T18:32:10.924Z,2.19
2022-12-04T18:35:57.097Z,2.22
2022-12-04T18:39:41.137Z,2.25
2022-12-04T18:43:23.921Z,2.26
2022-12-04T18:47:06.682Z,2.29
2022-12-04T18:50:52.070Z,2.23
2022-12-04T18:54:38.762Z,2.21
2022-12-04T18:58:24.577Z,2.10
2022-12-04T19:02:08.414Z,2.16
2022-12-04T19:05:51.894Z,2.14
2022-12-04T19:10:09.404Z,2.26
2022-12-04T19:13:39.166Z,2.17
2022-12-04T19:17:22.571Z,2.21
2022-12-04T19:21:06.346Z,2.08
2022-12-04T19:24:49.077Z,1.97
2022-12-04T19:28:32.152Z,1.94
2022-12-04T19:32:19.685Z,1.76
2022-12-04T19:36:04.100Z,1.88
2022-12-04T19:39:48.460Z,1.79
2022-12-04T19:43:31.213Z,1.83
2022-12-04T19:47:18.134Z,1.78
2022-12-04T19:51:06.334Z,1.84
2022-12-04T19:54:49.024Z,1.84
2022-12-04T19:58:34.703Z,1.88
2022-12-04T20:02:18.775Z,1.85
2022-12-04T20:06:03.674Z,1.93
2022-12-04T20:09:55.148Z,1.89
2022-12-04T20:13:38.549Z,1.88
2022-12-04T20:17:22.441Z,1.94
2022-12-04T20:21:10.817Z,1.89
2022-12-04T20:24:54.928Z,1.90
2022-12-04T20:28:38.195Z,1.88
2022-12-04T20:32:20.936Z,1.83
2022-12-04T20:36:05.062Z,1.79
2022-12-04T20:39:48.195Z,1.80
2022-12-04T20:43:33.870Z,1.90
2022-12-04T20:47:16.645Z,2.04
2022-12-04T20:51:08.502Z,2.15
2022-12-04T20:54:51.715Z,2.04
2022-12-04T20:58:36.015Z,2.01
2022-12-04T21:02:18.795Z,2.05
2022-12-04T21:06:17.102Z,2.14
2022-12-04T21:10:00.269Z,2.01
2022-12-04T21:14:01.797Z,1.86
2022-12-04T21:17:44.581Z,1.80
2022-12-04T21:21:27.498Z,1.69
2022-12-04T21:25:10.545Z,1.69
2022-12-04T21:28:54.660Z,1.62
2022-12-04T21:32:40.382Z,1.63
2022-12-04T21:36:32.704Z,1.57
2022-12-04T21:40:15.455Z,1.51
2022-12-04T21:43:59.535Z,1.57
2022-12-04T21:47:42.935Z,1.55
2022-12-04T21:55:38.011Z,1.63
2022-12-04T21:59:22.087Z,1.69
2022-12-04T22:03:06.123Z,1.70
2022-12-04T22:06:49.067Z,1.61
2022-12-04T22:10:31.849Z,1.55
2022-12-04T22:14:15.901Z,1.63
2022-12-04T22:18:00.034Z,1.65
2022-12-04T22:21:48.788Z,1.61
2022-12-04T22:25:31.567Z,1.58
2022-12-04T22:29:48.766Z,1.55
2022-12-04T22:33:18.828Z,1.36
2022-12-04T22:37:01.533Z,1.33
2022-12-04T22:40:44.353Z,1.43
2022-12-04T22:44:27.057Z,1.50
2022-12-04T22:48:09.845Z,1.42
2022-12-04T22:52:03.206Z,1.42
2022-12-04T22:55:45.922Z,1.42
2022-12-04T22:59:28.753Z,1.53
2022-12-04T23:03:14.405Z,1.46
2022-12-04T23:07:13.775Z,1.50
2022-12-04T23:10:56.558Z,1.58
2022-12-04T23:14:40.185Z,1.61
2022-12-04T23:18:22.930Z,1.65
2022-12-04T23:22:05.752Z,1.70
2022-12-04T23:25:49.835Z,1.73
2022-12-04T23:33:35.337Z,1.69
2022-12-04T23:37:18.062Z,1.70
2022-12-04T23:41:07.135Z,1.73
2022-12-04T23:44:49.822Z,1.83
2022-12-04T23:48:33.252Z,1.84
2022-12-04T23:52:15.970Z,1.76
2022-12-04T23:55:59.346Z,1.72
2022-12-04T23:59:43.427Z,1.74
